createdAt,value
2019-04-05T00:00:55.608Z,14.38
2019-04-05T00:03:24.151Z,13.50
2019-04-05T00:05:52.624Z,14.70
2019-04-05T00:08:21.181Z,13.60
2019-04-05T00:10:49.671Z,13.38
2019-04-05T00:13:18.110Z,14.05
2019-04-05T00:15:46.586Z,14.83
2019-04-05T00:18:16.503Z,15.78
2019-04-05T00:20:44.934Z,14.70
2019-04-05T00:23:13.391Z,14.95
2019-04-05T00:25:41.851Z,13.78
2019-04-05T00:28:10.322Z,15.05
2019-04-05T00:30:38.767Z,14.55
2019-04-05T00:33:07.197Z,14.15
2019-04-05T00:35:35.683Z,15.32
2019-04-05T00:38:05.680Z,14.93
2019-04-05T00:40:34.111Z,15.20
2019-04-05T00:43:02.588Z,17.00
2019-04-05T00:45:31.079Z,17.60
2019-04-05T00:48:01.021Z,16.32
2019-04-05T00:50:29.470Z,16.70
2019-04-05T00:52:58.079Z,16.82
2019-04-05T00:55:26.570Z,16.77
2019-04-05T00:57:55.020Z,16.15
2019-04-05T01:00:23.495Z,15.28
2019-04-05T01:02:51.940Z,15.50
2019-04-05T01:05:20.496Z,14.43
2019-04-05T01:07:49.099Z,16.07
2019-04-05T01:10:17.888Z,15.05
2019-04-05T01:12:46.995Z,15.03
2019-04-05T01:15:16.120Z,15.72
2019-04-05T01:17:44.934Z,16.17
2019-04-05T01:20:15.433Z,16.12
2019-04-05T01:22:47.945Z,15.70
2019-04-05T01:25:16.718Z,14.78
2019-04-05T01:27:48.225Z,15.48
2019-04-05T01:30:16.080Z,15.63
2019-04-05T01:32:44.615Z,15.58
2019-04-05T01:35:13.194Z,15.35
2019-04-05T01:37:42.116Z,15.18
2019-04-05T01:40:12.071Z,15.55
2019-04-05T01:42:40.681Z,15.63
2019-04-05T01:45:09.443Z,15.23
2019-04-05T01:47:38.025Z,17.05
2019-04-05T01:50:07.842Z,15.93
2019-04-05T01:52:36.667Z,16.23
2019-04-05T01:55:07.109Z,14.45
2019-04-05T01:57:35.534Z,15.40
2019-04-05T02:00:06.425Z,15.23
2019-04-05T02:02:34.842Z,15.48
2019-04-05T02:05:04.359Z,15.32
2019-04-05T02:07:33.072Z,15.78
2019-04-05T02:10:01.622Z,14.30
2019-04-05T02:12:30.132Z,15.35
2019-04-05T02:14:58.591Z,13.95
2019-04-05T02:17:27.061Z,16.05
2019-04-05T02:19:55.480Z,14.07
2019-04-05T02:22:24.106Z,14.55
2019-04-05T02:24:52.647Z,14.75
2019-04-05T02:27:21.079Z,15.10
2019-04-05T02:29:51.551Z,14.15
2019-04-05T02:32:19.998Z,15.72
2019-04-05T02:34:48.488Z,15.30
2019-04-05T02:37:16.953Z,16.77
2019-04-05T02:39:45.399Z,16.87
2019-04-05T02:42:14.380Z,16.60
2019-04-05T02:44:45.850Z,15.50
2019-04-05T02:47:14.462Z,16.48
2019-04-05T02:49:44.602Z,16.73
2019-04-05T02:52:16.025Z,16.75
2019-04-05T02:54:45.596Z,16.15
2019-04-05T02:57:14.658Z,15.50
2019-04-05T02:59:43.439Z,16.20
2019-04-05T03:02:12.030Z,16.75
2019-04-05T03:04:41.027Z,16.17
2019-04-05T03:07:09.544Z,16.45
2019-04-05T03:09:38.260Z,17.07
2019-04-05T03:12:07.346Z,15.23
2019-04-05T03:14:36.363Z,15.40
2019-04-05T03:17:05.183Z,16.07
2019-04-05T03:19:35.722Z,16.77
2019-04-05T03:22:07.247Z,14.85
2019-04-05T03:24:41.809Z,16.55
2019-04-05T03:27:13.333Z,15.75
2019-04-05T03:29:42.633Z,16.48
2019-04-05T03:32:11.412Z,16.85
2019-04-05T03:34:40.451Z,16.32
2019-04-05T03:37:09.529Z,16.80
2019-04-05T03:39:37.974Z,16.67
2019-04-05T03:42:06.593Z,17.73
2019-04-05T03:44:35.805Z,17.75
2019-04-05T03:47:04.532Z,17.80
2019-04-05T03:49:34.115Z,17.92
2019-04-05T03:52:03.701Z,17.75
2019-04-05T03:54:32.557Z,19.02
2019-04-05T03:57:01.177Z,18.75
2019-04-05T03:59:29.620Z,19.48
2019-04-05T04:01:58.144Z,20.05
2019-04-05T04:04:26.749Z,19.23
2019-04-05T04:06:55.743Z,20.85
2019-04-05T04:09:24.437Z,21.37
2019-04-05T04:11:53.549Z,21.07
2019-04-05T04:14:22.705Z,19.07
2019-04-05T04:16:52.667Z,20.85
2019-04-05T04:19:21.169Z,19.95
2019-04-05T04:21:52.692Z,20.12
2019-04-05T04:24:21.284Z,19.35
2019-04-05T04:26:51.054Z,21.40
2019-04-05T04:29:19.977Z,21.90
2019-04-05T04:31:49.079Z,19.80
2019-04-05T04:34:18.083Z,20.60
2019-04-05T04:36:46.522Z,19.37
2019-04-05T04:39:14.962Z,18.25
2019-04-05T04:41:44.029Z,19.15
2019-04-05T04:44:12.641Z,18.05
2019-04-05T04:46:41.155Z,17.57
2019-04-05T04:49:10.243Z,18.30
2019-04-05T04:51:38.819Z,18.62
2019-04-05T04:54:07.330Z,19.67
2019-04-05T04:56:35.865Z,19.60
2019-04-05T04:59:06.407Z,19.40
2019-04-05T05:01:34.987Z,18.30
2019-04-05T05:04:03.577Z,18.65
2019-04-05T05:06:32.097Z,18.77
2019-04-05T05:09:00.596Z,17.95
2019-04-05T05:11:29.111Z,18.50
2019-04-05T05:13:57.623Z,19.45
2019-04-05T05:16:26.148Z,20.97
2019-04-05T05:18:54.779Z,19.27
2019-04-05T05:21:23.495Z,19.85
2019-04-05T05:23:52.017Z,20.68
2019-04-05T05:26:20.726Z,19.05
2019-04-05T05:28:49.154Z,20.68
2019-04-05T05:31:18.035Z,21.42
2019-04-05T05:33:46.718Z,20.20
2019-04-05T05:36:15.532Z,21.77
2019-04-05T05:38:44.122Z,20.82
2019-04-05T05:41:12.631Z,20.48
2019-04-05T05:43:41.147Z,21.42
2019-04-05T05:46:09.608Z,22.70
2019-04-05T05:48:38.904Z,22.58
2019-04-05T05:51:07.347Z,21.70
2019-04-05T05:53:35.871Z,22.02
2019-04-05T05:56:04.310Z,22.37
2019-04-05T05:58:32.781Z,23.12
2019-04-05T06:01:01.215Z,22.58
2019-04-05T06:03:29.671Z,20.72
2019-04-05T06:06:04.627Z,22.52
2019-04-05T06:08:30.876Z,25.37
2019-04-05T06:10:59.312Z,23.45
2019-04-05T06:13:28.790Z,23.98
2019-04-05T06:15:57.271Z,23.10
2019-04-05T06:18:25.710Z,24.32
2019-04-05T06:20:54.143Z,21.02
2019-04-05T06:23:33.649Z,21.25
2019-04-05T06:25:55.614Z,22.00
2019-04-05T06:28:24.051Z,20.82
2019-04-05T06:30:55.238Z,20.25
2019-04-05T06:33:31.277Z,20.35
2019-04-05T06:35:53.835Z,22.13
2019-04-05T06:38:22.311Z,20.90
2019-04-05T06:40:53.499Z,20.65
2019-04-05T06:43:21.961Z,20.68
2019-04-05T06:45:50.442Z,20.12
2019-04-05T06:48:19.865Z,21.02
2019-04-05T06:50:48.440Z,20.05
2019-04-05T06:53:16.870Z,22.02
2019-04-05T06:55:45.309Z,21.93
2019-04-05T06:58:19.563Z,22.35
2019-04-05T07:00:56.474Z,20.95
2019-04-05T07:03:14.069Z,20.68
2019-04-05T07:05:42.600Z,22.22
2019-04-05T07:08:11.039Z,20.65
2019-04-05T07:10:39.489Z,20.30
2019-04-05T07:13:08.128Z,22.62
2019-04-05T07:15:36.827Z,22.40
2019-04-05T07:18:05.335Z,19.82
2019-04-05T07:20:33.785Z,20.62
2019-04-05T07:23:02.238Z,20.08
2019-04-05T07:25:30.669Z,20.55
2019-04-05T07:27:59.118Z,21.27
2019-04-05T07:30:32.549Z,21.48
2019-04-05T07:33:00.883Z,20.37
2019-04-05T07:35:33.620Z,20.82
2019-04-05T07:37:59.498Z,21.68
2019-04-05T07:40:27.935Z,21.50
2019-04-05T07:42:56.391Z,20.43
2019-04-05T07:45:24.826Z,21.23
2019-04-05T07:47:53.275Z,21.30
2019-04-05T07:50:21.712Z,20.77
2019-04-05T07:52:50.150Z,20.32
2019-04-05T07:55:18.613Z,19.85
2019-04-05T07:57:52.443Z,21.10
2019-04-05T08:00:42.590Z,18.67
2019-04-05T08:03:13.640Z,17.57
2019-04-05T08:05:42.420Z,17.92
2019-04-05T08:08:13.918Z,18.60
2019-04-05T08:10:44.094Z,17.75
2019-04-05T08:13:14.572Z,19.65
2019-04-05T08:15:43.475Z,17.90
2019-04-05T08:18:11.898Z,18.32
2019-04-05T08:20:40.344Z,17.02
2019-04-05T08:23:08.782Z,17.05
2019-04-05T08:25:37.223Z,16.37
2019-04-05T08:28:06.802Z,14.80
2019-04-05T08:30:35.406Z,16.02
2019-04-05T08:33:03.852Z,15.83
2019-04-05T08:35:32.365Z,14.28
2019-04-05T08:38:00.794Z,13.20
2019-04-05T08:40:29.242Z,13.60
2019-04-05T08:42:57.754Z,11.48
2019-04-05T08:45:26.244Z,11.83
2019-04-05T08:47:54.730Z,11.90
2019-04-05T08:50:23.166Z,11.75
2019-04-05T08:52:54.715Z,11.25
2019-04-05T08:55:23.151Z,10.90
2019-04-05T08:57:51.594Z,10.45
2019-04-05T09:00:20.315Z,11.12
2019-04-05T09:02:48.860Z,10.85
2019-04-05T09:05:17.404Z,10.43
2019-04-05T09:07:45.833Z,9.05
2019-04-05T09:10:15.330Z,8.25
2019-04-05T09:12:43.758Z,9.38
2019-04-05T09:15:12.338Z,8.13
2019-04-05T09:17:40.783Z,7.45
2019-04-05T09:20:09.462Z,7.53
2019-04-05T09:22:37.907Z,7.45
2019-04-05T09:25:09.407Z,6.72
2019-04-05T09:27:37.855Z,7.25
2019-04-05T09:30:09.877Z,7.03
2019-04-05T09:32:38.323Z,6.97
2019-04-05T09:35:07.801Z,6.72
2019-04-05T09:37:36.259Z,8.00
2019-04-05T09:40:07.251Z,8.25
2019-04-05T09:42:35.704Z,7.75
2019-04-05T09:45:06.365Z,7.60
2019-04-05T09:47:34.825Z,9.13
2019-04-05T09:50:06.779Z,8.60
2019-04-05T09:52:35.231Z,7.70
2019-04-05T09:55:04.361Z,8.38
2019-04-05T09:57:32.824Z,7.33
2019-04-05T10:00:01.283Z,8.58
2019-04-05T10:02:31.826Z,7.60
2019-04-05T10:04:59.983Z,7.75
2019-04-05T10:07:28.496Z,7.70
2019-04-05T10:09:56.959Z,7.72
2019-04-05T10:12:25.393Z,7.12
2019-04-05T10:14:53.832Z,8.80
2019-04-05T10:17:22.293Z,8.43
2019-04-05T10:19:50.880Z,9.50
2019-04-05T10:22:19.297Z,8.08
2019-04-05T10:24:49.123Z,7.85
2019-04-05T10:27:18.279Z,8.85
2019-04-05T10:29:49.389Z,8.43
2019-04-05T10:32:17.790Z,8.40
2019-04-05T10:34:46.238Z,8.95
2019-04-05T10:37:14.694Z,9.70
2019-04-05T10:39:44.508Z,9.90
2019-04-05T10:42:28.611Z,9.18
2019-04-05T10:44:57.045Z,8.60
2019-04-05T10:47:25.503Z,7.62
2019-04-05T10:50:02.939Z,8.85
2019-04-05T10:52:24.755Z,8.35
2019-04-05T10:54:53.190Z,8.88
2019-04-05T10:57:21.707Z,8.03
2019-04-05T10:59:50.164Z,8.78
2019-04-05T11:02:18.608Z,9.05
2019-04-05T11:04:47.059Z,8.35
2019-04-05T11:07:15.492Z,7.97
2019-04-05T11:09:56.462Z,8.25
2019-04-05T11:12:24.905Z,8.70
2019-04-05T11:14:53.362Z,8.53
2019-04-05T11:17:23.315Z,7.85
2019-04-05T11:19:51.758Z,8.10
2019-04-05T11:22:21.074Z,8.98
2019-04-05T11:24:49.703Z,10.35
2019-04-05T11:27:18.215Z,8.90
2019-04-05T11:29:46.683Z,8.18
2019-04-05T11:32:15.102Z,8.43
2019-04-05T11:34:43.545Z,8.70
2019-04-05T11:37:11.994Z,8.35
2019-04-05T11:39:40.490Z,8.38
2019-04-05T11:42:08.949Z,8.33
2019-04-05T11:44:39.331Z,8.10
2019-04-05T11:47:07.776Z,9.45
2019-04-05T11:49:38.066Z,8.75
2019-04-05T11:52:09.511Z,8.33
2019-04-05T11:54:37.954Z,8.23
2019-04-05T11:57:06.399Z,8.33
2019-04-05T11:59:34.927Z,7.20
2019-04-05T12:02:20.121Z,7.47
2019-04-05T12:04:48.608Z,8.23
2019-04-05T12:07:17.040Z,8.48
2019-04-05T12:09:45.976Z,9.08
2019-04-05T12:12:15.659Z,7.80
2019-04-05T12:14:45.431Z,8.45
2019-04-05T12:17:13.883Z,9.43
2019-04-05T12:19:42.327Z,8.73
2019-04-05T12:22:10.795Z,9.00
2019-04-05T12:24:39.286Z,8.83
2019-04-05T12:27:07.738Z,8.28
2019-04-05T12:29:36.162Z,8.10
2019-04-05T12:32:04.683Z,7.30
2019-04-05T12:34:33.135Z,7.62
2019-04-05T12:37:01.570Z,8.00
2019-04-05T12:39:30.025Z,7.25
2019-04-05T12:41:58.455Z,8.58
2019-04-05T12:44:26.983Z,7.78
2019-04-05T12:46:55.424Z,6.85
2019-04-05T12:49:25.223Z,6.25
2019-04-05T12:51:53.746Z,6.87
2019-04-05T12:54:22.209Z,6.90
2019-04-05T12:56:50.660Z,7.12
2019-04-05T12:59:20.381Z,7.33
2019-04-05T13:01:48.855Z,8.08
2019-04-05T13:04:20.256Z,7.37
2019-04-05T13:06:47.479Z,7.72
2019-04-05T13:09:15.995Z,7.30
2019-04-05T13:11:44.544Z,7.62
2019-04-05T13:14:12.969Z,7.30
2019-04-05T13:16:42.251Z,7.25
2019-04-05T13:19:11.267Z,7.70
2019-04-05T13:21:39.773Z,7.80
2019-04-05T13:24:10.037Z,7.97
2019-04-05T13:26:41.676Z,8.38
2019-04-05T13:29:08.562Z,7.42
2019-04-05T13:31:37.008Z,7.17
2019-04-05T13:34:06.193Z,6.47
2019-04-05T13:36:34.846Z,7.47
2019-04-05T13:39:03.480Z,7.00
2019-04-05T13:41:32.398Z,7.53
2019-04-05T13:44:01.638Z,7.10
2019-04-05T13:46:30.827Z,5.80
2019-04-05T13:48:59.258Z,6.87
2019-04-05T13:51:31.579Z,6.37
2019-04-05T13:54:00.219Z,6.85
2019-04-05T13:56:28.684Z,5.85
2019-04-05T13:58:57.705Z,5.92
2019-04-05T14:01:26.133Z,6.17
2019-04-05T14:03:54.587Z,7.10
2019-04-05T14:06:23.013Z,5.87
2019-04-05T14:08:51.462Z,6.42
2019-04-05T14:11:25.950Z,6.97
2019-04-05T14:13:53.727Z,7.28
2019-04-05T14:16:22.180Z,7.33
2019-04-05T14:18:50.619Z,7.47
2019-04-05T14:21:22.246Z,6.87
2019-04-05T14:23:49.243Z,7.45
2019-04-05T14:26:17.687Z,7.33
2019-04-05T14:28:46.130Z,6.75
2019-04-05T14:31:14.648Z,6.80
2019-04-05T14:33:43.119Z,6.97
2019-04-05T14:36:12.174Z,6.22
2019-04-05T14:38:40.627Z,7.03
2019-04-05T14:41:09.067Z,6.80
2019-04-05T14:43:37.918Z,7.00
2019-04-05T14:46:06.632Z,7.28
2019-04-05T14:48:35.076Z,5.90
2019-04-05T14:51:03.602Z,6.12
2019-04-05T14:53:32.735Z,6.83
2019-04-05T14:56:01.270Z,6.22
2019-04-05T14:58:29.900Z,5.65
2019-04-05T15:00:58.350Z,6.03
2019-04-05T15:03:26.787Z,5.83
2019-04-05T15:05:55.251Z,6.20
2019-04-05T15:08:23.686Z,6.80
2019-04-05T15:10:52.135Z,6.70
2019-04-05T15:13:20.955Z,6.40
2019-04-05T15:15:49.395Z,7.97
2019-04-05T15:18:19.633Z,7.95
2019-04-05T15:20:48.355Z,6.28
2019-04-05T15:23:17.469Z,7.37
2019-04-05T15:25:49.419Z,7.35
2019-04-05T15:28:17.399Z,7.08
2019-04-05T15:30:45.854Z,7.03
2019-04-05T15:33:14.292Z,7.03
2019-04-05T15:35:42.762Z,6.95
2019-04-05T15:38:11.239Z,7.05
2019-04-05T15:40:39.686Z,7.78
2019-04-05T15:43:08.135Z,7.12
2019-04-05T15:45:37.364Z,7.30
2019-04-05T15:48:05.822Z,6.90
2019-04-05T15:50:34.251Z,6.92
2019-04-05T15:53:03.005Z,6.70
2019-04-05T15:55:33.651Z,7.00
2019-04-05T15:58:03.789Z,7.12
2019-04-05T16:00:42.463Z,7.08
2019-04-05T16:03:11.454Z,7.72
2019-04-05T16:05:40.036Z,7.72
2019-04-05T16:08:08.543Z,7.58
2019-04-05T16:10:37.068Z,7.40
2019-04-05T16:13:07.918Z,7.65
2019-04-05T16:15:35.910Z,7.90
2019-04-05T16:18:04.437Z,7.97
2019-04-05T16:20:32.891Z,6.62
2019-04-05T16:23:01.343Z,8.33
2019-04-05T16:25:29.795Z,7.55
2019-04-05T16:28:00.289Z,7.33
2019-04-05T16:30:28.749Z,7.90
2019-04-05T16:32:57.178Z,7.65
2019-04-05T16:35:25.636Z,8.18
2019-04-05T16:37:56.179Z,7.25
2019-04-05T16:40:24.654Z,7.10
2019-04-05T16:43:02.431Z,7.28
2019-04-05T16:45:23.336Z,8.95
2019-04-05T16:47:53.414Z,7.87
2019-04-05T16:50:21.917Z,7.53
2019-04-05T16:52:52.899Z,8.55
2019-04-05T16:55:21.339Z,8.05
2019-04-05T16:57:49.775Z,8.40
2019-04-05T17:00:18.763Z,7.75
2019-04-05T17:02:51.694Z,7.47
2019-04-05T17:05:20.127Z,7.85
2019-04-05T17:07:48.574Z,8.38
2019-04-05T17:10:17.013Z,8.15
2019-04-05T17:12:45.503Z,7.90
2019-04-05T17:15:14.285Z,9.05
2019-04-05T17:17:42.730Z,8.68
2019-04-05T17:20:14.239Z,8.53
2019-04-05T17:22:42.667Z,8.38
2019-04-05T17:25:11.275Z,8.58
2019-04-05T17:27:39.775Z,8.35
2019-04-05T17:30:08.840Z,8.48
2019-04-05T17:32:37.362Z,8.63
2019-04-05T17:35:07.915Z,8.45
2019-04-05T17:37:36.374Z,9.78
2019-04-05T17:40:08.279Z,9.40
2019-04-05T17:42:36.796Z,8.68
2019-04-05T17:45:07.136Z,9.30
2019-04-05T17:47:40.019Z,7.90
2019-04-05T17:50:10.611Z,8.83
2019-04-05T17:52:39.119Z,9.03
2019-04-05T17:55:08.511Z,8.75
2019-04-05T17:57:37.019Z,8.40
2019-04-05T18:00:09.816Z,9.45
2019-04-05T18:02:38.251Z,8.93
2019-04-05T18:05:07.990Z,9.83
2019-04-05T18:07:37.443Z,8.63
2019-04-05T18:10:06.419Z,9.70
2019-04-05T18:12:34.871Z,10.50
2019-04-05T18:15:03.942Z,10.28
2019-04-05T18:17:32.387Z,9.03
2019-04-05T18:20:00.831Z,10.68
2019-04-05T18:22:29.272Z,10.05
2019-04-05T18:24:59.916Z,9.85
2019-04-05T18:27:28.355Z,9.60
2019-04-05T18:29:56.787Z,10.23
2019-04-05T18:32:25.239Z,10.50
2019-04-05T18:34:53.674Z,10.32
2019-04-05T18:37:22.127Z,9.88
2019-04-05T18:39:50.567Z,10.18
2019-04-05T18:42:19.019Z,10.32
2019-04-05T18:44:47.473Z,10.90
2019-04-05T18:47:15.916Z,10.75
2019-04-05T18:49:44.354Z,10.00
2019-04-05T18:52:12.784Z,10.48
2019-04-05T18:54:41.235Z,10.13
2019-04-05T18:57:09.670Z,11.50
2019-04-05T18:59:38.112Z,11.00
2019-04-05T19:02:06.639Z,11.83
2019-04-05T19:04:35.058Z,12.20
2019-04-05T19:07:03.508Z,11.18
2019-04-05T19:09:31.942Z,11.75
2019-04-05T19:12:00.400Z,10.85
2019-04-05T19:14:28.829Z,12.20
2019-04-05T19:16:59.216Z,12.07
2019-04-05T19:19:27.899Z,12.05
2019-04-05T19:21:56.346Z,11.25
2019-04-05T19:24:24.794Z,12.78
2019-04-05T19:26:53.233Z,11.38
2019-04-05T19:29:21.673Z,11.65
2019-04-05T19:49:21.294Z,13.30
2019-04-05T19:51:49.819Z,13.78
2019-04-05T19:54:18.246Z,14.87
2019-04-05T19:56:46.687Z,13.58
2019-04-05T19:59:15.137Z,13.70
2019-04-05T20:01:43.583Z,13.68
2019-04-05T20:04:12.032Z,13.05
2019-04-05T20:06:44.884Z,14.78
2019-04-05T20:09:13.423Z,14.98
2019-04-05T20:11:41.877Z,15.53
2019-04-05T20:14:16.624Z,14.15
2019-04-05T20:16:45.184Z,16.20
2019-04-05T20:19:15.001Z,14.75
2019-04-05T20:21:43.447Z,14.75
2019-04-05T20:24:14.270Z,15.55
2019-04-05T20:26:42.046Z,14.80
2019-04-05T20:29:10.490Z,13.62
2019-04-05T20:31:38.933Z,15.25
2019-04-05T20:34:07.370Z,15.70
2019-04-05T20:36:36.391Z,14.43
2019-04-05T20:39:07.166Z,15.20
2019-04-05T20:41:35.602Z,14.87
2019-04-05T20:44:05.302Z,14.07
2019-04-05T20:46:34.024Z,14.50
2019-04-05T20:49:02.475Z,15.98
2019-04-05T20:51:30.911Z,14.85
2019-04-05T20:53:59.353Z,15.60
2019-04-05T20:56:27.792Z,14.60
2019-04-05T20:58:56.230Z,16.05
2019-04-05T21:01:24.673Z,14.98
2019-04-05T21:03:53.102Z,15.90
2019-04-05T21:06:23.082Z,16.48
2019-04-05T21:08:51.519Z,16.20
2019-04-05T21:11:19.960Z,15.20
2019-04-05T21:13:48.390Z,17.20
2019-04-05T21:16:16.837Z,15.45
2019-04-05T21:18:45.354Z,16.95
2019-04-05T21:21:13.844Z,16.07
2019-04-05T21:23:42.313Z,15.72
2019-04-05T21:26:10.826Z,16.32
2019-04-05T21:28:39.288Z,16.95
2019-04-05T21:31:07.752Z,17.40
2019-04-05T21:33:36.583Z,17.25
2019-04-05T21:36:05.604Z,16.80
2019-04-05T21:38:34.194Z,17.15
2019-04-05T21:41:02.764Z,17.52
2019-04-05T21:43:31.335Z,17.25
2019-04-05T21:46:00.549Z,18.82
2019-04-05T21:48:30.652Z,17.05
2019-04-05T21:50:59.399Z,18.00
2019-04-05T21:53:27.999Z,17.50
2019-04-05T21:55:56.577Z,18.15
2019-04-05T21:58:26.013Z,18.00
2019-04-05T22:01:02.126Z,19.07
2019-04-05T22:03:30.802Z,18.55
2019-04-05T22:05:59.364Z,18.20
2019-04-05T22:08:27.949Z,20.08
2019-04-05T22:10:56.547Z,19.17
2019-04-05T22:13:26.507Z,21.10
2019-04-05T22:15:56.437Z,18.77
2019-04-05T22:18:25.017Z,19.82
2019-04-05T22:20:53.609Z,19.52
2019-04-05T22:23:22.709Z,19.70
2019-04-05T22:25:51.259Z,19.50
2019-04-05T22:28:19.867Z,19.98
2019-04-05T22:30:48.451Z,20.48
2019-04-05T22:33:17.061Z,19.40
2019-04-05T22:35:45.717Z,19.12
2019-04-05T22:38:14.314Z,18.10
2019-04-05T22:40:42.917Z,19.85
2019-04-05T22:43:11.509Z,19.48
2019-04-05T22:45:40.112Z,18.37
2019-04-05T22:48:08.681Z,19.50
2019-04-05T22:50:37.937Z,19.55
2019-04-05T22:53:06.498Z,18.98
2019-04-05T22:55:35.100Z,20.60
2019-04-05T22:58:03.712Z,19.15
2019-04-05T23:00:32.328Z,19.73
2019-04-05T23:03:00.923Z,21.07
2019-04-05T23:05:29.514Z,20.20
2019-04-05T23:07:58.109Z,20.77
2019-04-05T23:10:26.698Z,20.57
2019-04-05T23:12:55.299Z,20.40
2019-04-05T23:15:23.876Z,19.70
2019-04-05T23:17:52.481Z,19.23
2019-04-05T23:20:21.087Z,20.90
2019-04-05T23:22:49.685Z,20.75
2019-04-05T23:25:22.207Z,22.75
2019-04-05T23:27:48.530Z,22.27
2019-04-05T23:30:17.978Z,24.23
2019-04-05T23:32:46.570Z,26.65
2019-04-05T23:35:16.274Z,24.55
2019-04-05T23:37:44.876Z,24.67
2019-04-05T23:40:14.041Z,25.17
2019-04-05T23:42:42.629Z,22.90
2019-04-05T23:45:11.304Z,24.00
2019-04-05T23:47:39.894Z,23.67
2019-04-05T23:50:08.926Z,24.23
2019-04-05T23:52:39.049Z,26.05
2019-04-05T23:55:07.804Z,27.02
2019-04-05T23:57:36.402Z,27.98
